Time;durP1;ratioP1;P1;durP2;ratioP2;P2;SDS_P1;SDS_P2;PMS_P1;PMS_P2;Temp;Humidity;BMP_temperature;BMP_pressure;BME280_temperature;BME280_humidity;BME280_pressure;Samples;Min_cycle;Max_cycle;Signal;HPM_P1;HPM_P2
2022/11/18 00:00:02;;;;;;;15.13;10.38;;;5.90;99.90;;;;;;6254075;22;20235;-81
2022/11/18 00:02:31;;;;;;;15.88;12.05;;;6.10;99.90;;;;;;6255605;23;20196;-81
2022/11/18 00:04:57;;;;;;;16.73;11.10;;;5.90;99.90;;;;;;6255085;23;20184;-81
2022/11/18 00:07:24;;;;;;;13.20;10.55;;;5.90;99.90;;;;;;6255033;23;20207;-79
2022/11/18 00:09:51;;;;;;;16.65;12.40;;;5.90;99.90;;;;;;6255518;22;20238;-79
2022/11/18 00:15:02;;;;;;;14.75;11.32;;;5.90;99.90;;;;;;6255665;23;20207;-81
2022/11/18 00:17:32;;;;;;;19.73;11.45;;;6.00;99.90;;;;;;6256978;23;20205;-81
2022/11/18 00:19:59;;;;;;;18.00;12.48;;;5.90;99.90;;;;;;6258090;22;20262;-80
2022/11/18 00:22:25;;;;;;;16.60;12.00;;;5.90;99.90;;;;;;6273194;22;20175;-82
2022/11/18 00:24:52;;;;;;;18.50;13.15;;;5.80;99.90;;;;;;6273034;22;20167;-80
2022/11/18 00:27:19;;;;;;;16.38;12.25;;;5.80;99.90;;;;;;6273749;22;20203;-81
2022/11/18 00:29:46;;;;;;;19.63;12.27;;;5.80;99.90;;;;;;6273324;22;20183;-82
2022/11/18 00:32:13;;;;;;;18.92;14.02;;;5.80;99.90;;;;;;6273967;22;20190;-81
2022/11/18 00:34:42;;;;;;;17.15;11.18;;;5.80;99.90;;;;;;6274195;22;20159;-82
2022/11/18 00:37:09;;;;;;;19.58;12.07;;;5.80;99.90;;;;;;6274124;22;20179;-80
2022/11/18 00:39:35;;;;;;;16.80;10.77;;;5.80;99.90;;;;;;6273680;22;20184;-82
2022/11/18 00:44:58;;;;;;;22.08;13.80;;;5.80;99.90;;;;;;6181954;23;20176;-81
2022/11/18 00:47:25;;;;;;;18.00;13.20;;;5.80;99.90;;;;;;6251137;22;20166;-80
2022/11/18 00:49:53;;;;;;;18.88;12.15;;;5.80;99.90;;;;;;6272457;22;20199;-80
2022/11/18 00:52:20;;;;;;;17.60;12.60;;;5.80;99.90;;;;;;6272624;23;20187;-79
2022/11/18 00:54:47;;;;;;;16.30;11.95;;;5.80;99.90;;;;;;6264618;23;20180;-79
2022/11/18 00:57:14;;;;;;;19.80;13.20;;;5.90;99.90;;;;;;6255374;23;20513;-79
2022/11/18 00:59:40;;;;;;;20.58;12.02;;;5.80;99.90;;;;;;6253852;22;20208;-79
2022/11/18 01:02:07;;;;;;;19.10;13.60;;;5.80;99.90;;;;;;6253564;23;20284;-79
2022/11/18 01:04:34;;;;;;;15.90;11.90;;;5.80;99.90;;;;;;6252502;23;20600;-79
2022/11/18 01:07:02;;;;;;;20.42;14.48;;;5.80;99.90;;;;;;6253567;23;20202;-80
2022/11/18 01:09:29;;;;;;;18.40;12.27;;;5.70;99.90;;;;;;6253364;22;20281;-80
2022/11/18 01:14:40;;;;;;;19.90;14.05;;;5.80;99.90;;;;;;6256377;23;20158;-80
2022/11/18 01:17:07;;;;;;;18.33;13.10;;;5.80;99.90;;;;;;6257397;23;20179;-79
2022/11/18 01:19:34;;;;;;;21.20;12.30;;;5.80;99.90;;;;;;6255937;22;20206;-79
2022/11/18 01:22:03;;;;;;;15.93;12.90;;;5.80;99.90;;;;;;6256258;23;20200;-79
2022/11/18 01:24:30;;;;;;;18.73;12.23;;;5.70;99.90;;;;;;6256241;23;20179;-79
2022/11/18 01:26:57;;;;;;;22.13;13.60;;;5.70;99.90;;;;;;6254716;23;20204;-79
2022/11/18 01:29:24;;;;;;;15.35;11.13;;;5.70;99.90;;;;;;6253647;22;20200;-79
2022/11/18 01:31:51;;;;;;;17.50;12.98;;;5.70;99.90;;;;;;6253473;23;20173;-79
2022/11/18 01:34:18;;;;;;;19.88;12.82;;;5.70;99.90;;;;;;6253532;23;20227;-79
2022/11/18 01:36:45;;;;;;;18.02;12.45;;;5.70;99.90;;;;;;6253124;23;20513;-79
2022/11/18 01:39:13;;;;;;;18.75;12.70;;;5.60;99.90;;;;;;6252229;22;20207;-78
2022/11/18 01:41:40;;;;;;;18.63;11.55;;;5.70;99.90;;;;;;6254892;23;20211;-79
2022/11/18 01:44:45;;;;;;;17.58;12.13;;;5.70;99.90;;;;;;6255137;23;20207;-80
2022/11/18 01:47:13;;;;;;;18.38;11.40;;;5.70;99.90;;;;;;6254152;23;20209;-80
2022/11/18 01:49:40;;;;;;;13.35;10.10;;;5.70;99.90;;;;;;6253458;22;20271;-80
2022/11/18 01:52:08;;;;;;;15.55;10.60;;;5.70;99.90;;;;;;6252827;23;20271;-80
2022/11/18 01:54:39;;;;;;;16.85;12.32;;;5.70;99.90;;;;;;6251856;23;20199;-79
2022/11/18 01:57:11;;;;;;;13.93;11.00;;;5.70;99.90;;;;;;6251713;23;20161;-80
2022/11/18 01:59:41;;;;;;;20.25;12.93;;;5.80;99.90;;;;;;6251743;22;20280;-81
2022/11/18 02:02:11;;;;;;;15.05;10.68;;;5.80;99.90;;;;;;6251900;23;20656;-80
2022/11/18 02:04:41;;;;;;;14.68;10.45;;;5.70;99.90;;;;;;6252052;23;20211;-81
2022/11/18 02:07:10;;;;;;;15.27;10.40;;;5.80;99.90;;;;;;6251680;23;20176;-79
2022/11/18 02:09:38;;;;;;;16.75;11.07;;;5.80;99.90;;;;;;6251156;22;20289;-80
2022/11/18 02:12:06;;;;;;;12.82;9.05;;;5.70;99.90;;;;;;6252483;23;20251;-81
2022/11/18 02:14:37;;;;;;;14.52;9.38;;;5.70;99.90;;;;;;6251881;23;20547;-79
2022/11/18 02:17:28;;;;;;;14.15;9.90;;;5.70;99.90;;;;;;6253087;23;20180;-78
2022/11/18 02:20:27;;;;;;;15.20;10.60;;;5.70;99.90;;;;;;6257454;22;20200;-79
2022/11/18 02:23:15;;;;;;;12.93;8.20;;;5.70;99.90;;;;;;6257767;23;20228;-79
2022/11/18 02:25:58;;;;;;;10.75;8.90;;;5.60;99.90;;;;;;6191023;23;20197;-78
2022/11/18 02:28:36;;;;;;;10.00;7.75;;;5.60;99.90;;;;;;6254322;23;20199;-79
2022/11/18 02:31:09;;;;;;;8.35;6.88;;;5.60;99.90;;;;;;6251772;23;20166;-80
2022/11/18 02:33:43;;;;;;;10.95;8.40;;;5.60;99.90;;;;;;6251064;23;20254;-80
2022/11/18 02:36:15;;;;;;;8.55;7.65;;;5.60;99.90;;;;;;6253636;23;20169;-80
2022/11/18 02:38:45;;;;;;;13.68;7.97;;;5.60;99.90;;;;;;6253261;22;20199;-80
2022/11/18 02:41:17;;;;;;;12.13;8.80;;;5.50;99.90;;;;;;6254540;23;20255;-79
2022/11/18 02:43:47;;;;;;;10.65;7.63;;;5.50;99.90;;;;;;6254795;23;20179;-81
2022/11/18 02:46:18;;;;;;;9.85;7.85;;;5.50;99.90;;;;;;6254114;23;20163;-79
2022/11/18 02:48:50;;;;;;;10.68;7.45;;;5.50;99.90;;;;;;6254107;22;20179;-80
2022/11/18 02:51:20;;;;;;;12.00;8.23;;;5.40;99.90;;;;;;6253773;23;20610;-80
2022/11/18 02:53:49;;;;;;;11.55;7.53;;;5.40;99.90;;;;;;6254058;23;20243;-80
2022/11/18 02:56:18;;;;;;;10.63;7.70;;;5.40;99.90;;;;;;6254127;23;20214;-80
2022/11/18 02:58:45;;;;;;;12.55;8.50;;;5.40;99.90;;;;;;6253316;22;20213;-79
2022/11/18 03:01:19;;;;;;;11.38;7.00;;;5.40;99.90;;;;;;6249315;23;20247;-79
2022/11/18 03:03:46;;;;;;;9.32;7.32;;;5.40;99.90;;;;;;6252781;23;20180;-80
2022/11/18 03:06:24;;;;;;;10.27;6.72;;;5.40;99.90;;;;;;6254173;23;20582;-79
2022/11/18 03:08:58;;;;;;;8.98;7.38;;;5.40;99.90;;;;;;6254067;22;20202;-79
2022/11/18 04:18:14;;;;;;;15.70;11.50;;;5.00;99.90;;;;;;5961143;23;20328;-85
2022/11/18 04:20:41;;;;;;;19.63;13.13;;;5.00;99.90;;;;;;6029721;23;20199;-87
2022/11/18 04:23:08;;;;;;;21.98;13.73;;;5.00;99.90;;;;;;6110096;23;20194;-86
2022/11/18 04:25:35;;;;;;;21.38;14.18;;;5.00;99.90;;;;;;6202668;23;20180;-85
2022/11/18 04:28:02;;;;;;;21.08;12.90;;;4.90;99.90;;;;;;6242340;22;20191;-86
2022/11/18 04:30:30;;;;;;;21.77;12.13;;;4.90;99.90;;;;;;6241993;22;20179;-86
2022/11/18 04:32:57;;;;;;;20.40;13.52;;;4.90;99.90;;;;;;6242874;22;20163;-86
2022/11/18 04:35:26;;;;;;;24.50;13.05;;;5.00;99.90;;;;;;6242157;22;20159;-85
2022/11/18 04:37:53;;;;;;;18.13;11.90;;;4.80;99.90;;;;;;6242651;22;20164;-85
2022/11/18 04:40:21;;;;;;;17.92;12.27;;;4.80;99.90;;;;;;6241592;23;20202;-85
2022/11/18 04:42:48;;;;;;;24.20;14.68;;;4.70;99.90;;;;;;6241418;22;20218;-84
2022/11/18 04:45:16;;;;;;;17.98;12.65;;;4.80;99.90;;;;;;6242122;22;20183;-84
2022/11/18 04:47:42;;;;;;;20.55;13.15;;;4.80;99.90;;;;;;6240562;23;20175;-83
2022/11/18 04:50:10;;;;;;;19.40;12.38;;;4.80;99.90;;;;;;6240398;23;20195;-85
2022/11/18 04:52:38;;;;;;;23.30;13.65;;;4.80;99.90;;;;;;6240025;22;20171;-85
2022/11/18 04:55:05;;;;;;;20.88;13.65;;;4.70;99.90;;;;;;6240428;23;20203;-85
2022/11/18 04:57:32;;;;;;;24.98;13.23;;;4.70;99.90;;;;;;6238418;23;20203;-84
2022/11/18 04:59:59;;;;;;;22.55;13.80;;;4.70;99.90;;;;;;6237112;23;20547;-84
2022/11/18 05:02:25;;;;;;;20.60;12.80;;;4.70;99.90;;;;;;6234086;23;20202;-85
2022/11/18 05:04:52;;;;;;;22.48;14.68;;;4.90;99.90;;;;;;6234937;23;20176;-85
2022/11/18 05:07:19;;;;;;;24.70;13.27;;;4.60;99.90;;;;;;6234984;23;20508;-85
2022/11/18 05:09:47;;;;;;;20.80;13.35;;;4.60;99.90;;;;;;6232967;23;20183;-84
2022/11/18 05:15:14;;;;;;;20.45;13.63;;;4.50;99.90;;;;;;6174733;23;20224;-85
2022/11/18 05:17:41;;;;;;;20.55;13.00;;;4.50;99.90;;;;;;6173618;23;20205;-84
2022/11/18 05:20:09;;;;;;;22.85;14.30;;;4.40;99.90;;;;;;6203183;23;20274;-84
2022/11/18 05:22:35;;;;;;;17.65;12.75;;;4.40;99.90;;;;;;6236986;22;20242;-85
2022/11/18 05:25:04;;;;;;;19.80;14.45;;;4.40;99.90;;;;;;6241478;22;20175;-85
2022/11/18 05:27:31;;;;;;;19.45;13.00;;;4.40;99.90;;;;;;6240399;22;20243;-86
2022/11/18 05:29:58;;;;;;;19.38;13.90;;;4.40;99.90;;;;;;6237617;23;20218;-82
2022/11/18 05:32:25;;;;;;;23.02;14.07;;;4.50;99.90;;;;;;6239123;22;20184;-83
2022/11/18 05:34:52;;;;;;;22.77;15.82;;;4.40;99.90;;;;;;6240497;23;20182;-86
2022/11/18 05:37:18;;;;;;;22.48;13.95;;;4.40;99.90;;;;;;6240548;23;20175;-87
2022/11/18 05:39:45;;;;;;;23.80;14.85;;;4.40;99.90;;;;;;6238567;22;20501;-85
2022/11/18 05:44:58;;;;;;;22.27;13.95;;;4.30;99.90;;;;;;6225227;23;20171;-85
2022/11/18 05:47:25;;;;;;;26.00;15.13;;;4.40;99.90;;;;;;6226652;23;20215;-86
2022/11/18 05:49:52;;;;;;;22.05;13.65;;;4.40;99.90;;;;;;6225364;23;20227;-85
2022/11/18 05:52:18;;;;;;;21.35;14.88;;;4.40;99.90;;;;;;6224264;23;20199;-85
2022/11/18 05:54:49;;;;;;;21.75;14.50;;;4.40;99.90;;;;;;6225096;23;20182;-85
2022/11/18 05:57:17;;;;;;;23.90;15.27;;;4.40;99.90;;;;;;6228929;23;20189;-84
2022/11/18 05:59:44;;;;;;;21.00;14.52;;;4.40;99.90;;;;;;6217801;23;20286;-84
2022/11/18 06:02:15;;;;;;;21.70;14.73;;;4.50;99.90;;;;;;6219117;23;20263;-84
2022/11/18 06:04:46;;;;;;;21.10;14.80;;;4.50;99.90;;;;;;6219839;23;20660;-84
2022/11/18 06:07:16;;;;;;;20.70;15.52;;;4.40;99.90;;;;;;6220245;23;20198;-85
2022/11/18 06:09:48;;;;;;;27.67;17.40;;;4.40;99.90;;;;;;6221289;23;20200;-85
2022/11/18 06:12:20;;;;;;;22.60;14.60;;;4.40;99.90;;;;;;6223897;23;20215;-84
2022/11/18 06:14:52;;;;;;;26.70;18.00;;;4.40;99.90;;;;;;6226856;23;20291;-84
2022/11/18 06:17:22;;;;;;;25.13;15.40;;;4.40;99.90;;;;;;6227511;23;20164;-84
2022/11/18 06:19:51;;;;;;;20.80;14.20;;;4.50;99.90;;;;;;6232181;23;20211;-85
2022/11/18 06:22:17;;;;;;;19.45;14.15;;;4.50;99.90;;;;;;6241424;23;20179;-84
2022/11/18 06:24:45;;;;;;;24.95;15.18;;;4.60;99.90;;;;;;6242407;22;20210;-84
2022/11/18 06:27:13;;;;;;;22.58;14.77;;;4.50;99.90;;;;;;6243070;22;20206;-84
2022/11/18 06:29:41;;;;;;;22.08;13.88;;;4.50;99.90;;;;;;6242859;22;20163;-85
2022/11/18 06:32:09;;;;;;;22.75;14.57;;;4.50;99.90;;;;;;6241585;23;20164;-84
2022/11/18 06:34:36;;;;;;;21.48;13.80;;;4.50;99.90;;;;;;6240447;23;20207;-85
2022/11/18 06:37:12;;;;;;;21.77;13.93;;;4.50;99.90;;;;;;6239277;22;20179;-84
2022/11/18 06:39:39;;;;;;;20.40;14.90;;;4.50;99.90;;;;;;6238146;23;20183;-84
2022/11/18 06:42:06;;;;;;;23.92;15.02;;;4.50;99.90;;;;;;6240624;23;20237;-84
2022/11/18 06:44:32;;;;;;;18.33;13.77;;;4.50;99.90;;;;;;6238495;23;20239;-84
2022/11/18 06:47:01;;;;;;;26.83;15.67;;;4.50;99.90;;;;;;6237444;23;20182;-83
2022/11/18 06:49:28;;;;;;;21.73;14.32;;;4.40;99.90;;;;;;6237104;23;20418;-84
2022/11/18 06:51:57;;;;;;;21.73;15.02;;;4.40;99.90;;;;;;6234638;23;20203;-83
2022/11/18 06:54:24;;;;;;;20.05;13.60;;;4.60;99.90;;;;;;6233976;23;20187;-83
2022/11/18 06:56:58;;;;;;;23.30;15.27;;;4.40;99.90;;;;;;6234111;23;20182;-83
2022/11/18 06:59:25;;;;;;;19.67;13.57;;;4.50;99.90;;;;;;6232193;23;20175;-84
2022/11/18 07:01:53;;;;;;;21.90;14.98;;;4.50;99.90;;;;;;6235564;23;20219;-86
2022/11/18 07:04:21;;;;;;;22.17;15.18;;;4.60;99.90;;;;;;6232992;23;20219;-84
2022/11/18 07:06:48;;;;;;;20.88;13.88;;;4.50;99.90;;;;;;6232471;23;20285;-85
2022/11/18 07:09:15;;;;;;;23.52;14.55;;;4.40;99.90;;;;;;6230060;23;20179;-84
2022/11/18 07:11:42;;;;;;;21.92;14.65;;;4.50;99.90;;;;;;6225044;23;20287;-83
2022/11/18 07:14:09;;;;;;;22.48;15.15;;;4.50;99.90;;;;;;6229504;23;20176;-84
2022/11/18 07:16:36;;;;;;;19.67;15.15;;;4.50;99.90;;;;;;6240615;22;20190;-80
2022/11/18 07:19:09;;;;;;;20.20;14.50;;;4.50;99.90;;;;;;6239835;23;20180;-79
2022/11/18 07:21:38;;;;;;;25.80;15.32;;;4.50;99.90;;;;;;6238158;23;20218;-81
2022/11/18 07:24:06;;;;;;;22.20;14.27;;;4.40;99.90;;;;;;6231014;23;20199;-81
2022/11/18 07:26:41;;;;;;;17.90;13.38;;;4.40;99.90;;;;;;6229034;23;20219;-85
2022/11/18 07:29:09;;;;;;;22.13;15.40;;;4.40;99.90;;;;;;6235199;23;20186;-83
2022/11/18 07:31:38;;;;;;;22.55;14.85;;;4.30;99.90;;;;;;6234817;23;20251;-84
2022/11/18 07:34:06;;;;;;;23.25;15.00;;;4.30;99.90;;;;;;6235413;23;20180;-84
2022/11/18 07:36:33;;;;;;;21.30;13.90;;;4.40;99.90;;;;;;6236087;23;20179;-83
2022/11/18 07:39:01;;;;;;;22.42;14.73;;;4.30;99.90;;;;;;6233578;23;20283;-82
2022/11/18 07:41:30;;;;;;;27.55;17.10;;;4.30;99.90;;;;;;6230514;23;20200;-84
2022/11/18 07:43:59;;;;;;;25.00;18.13;;;4.30;99.90;;;;;;6233699;23;20217;-85
2022/11/18 07:46:27;;;;;;;22.65;16.67;;;4.20;99.90;;;;;;6233262;23;20285;-85
2022/11/18 07:48:56;;;;;;;23.55;16.38;;;4.20;99.90;;;;;;6232583;23;20248;-84
2022/11/18 07:51:26;;;;;;;24.45;15.93;;;4.30;99.90;;;;;;6229895;23;20227;-83
2022/11/18 07:53:53;;;;;;;28.35;18.48;;;4.30;99.90;;;;;;6229461;23;20167;-84
2022/11/18 07:56:22;;;;;;;24.52;16.30;;;4.30;99.90;;;;;;6228538;23;20216;-83
2022/11/18 07:58:52;;;;;;;32.25;20.52;;;4.30;99.90;;;;;;6229598;23;20184;-84
2022/11/18 08:01:21;;;;;;;26.45;17.15;;;4.20;99.90;;;;;;6226343;23;20635;-82
2022/11/18 08:03:49;;;;;;;28.13;17.48;;;4.20;99.90;;;;;;6224704;23;20626;-84
2022/11/18 08:06:17;;;;;;;28.30;19.15;;;4.20;99.90;;;;;;6223476;23;20258;-84
2022/11/18 08:08:45;;;;;;;22.60;15.70;;;4.20;99.90;;;;;;6223190;23;20164;-82
2022/11/18 08:11:16;;;;;;;25.45;17.60;;;4.20;99.90;;;;;;6219197;23;20257;-82
2022/11/18 08:13:51;;;;;;;28.17;19.33;;;4.20;99.90;;;;;;6219280;23;20198;-83
2022/11/18 08:16:21;;;;;;;22.27;17.20;;;4.10;99.90;;;;;;6222045;23;20174;-83
2022/11/18 08:18:48;;;;;;;30.17;17.45;;;4.10;99.90;;;;;;6222699;23;20179;-83
2022/11/18 08:21:16;;;;;;;28.50;18.88;;;4.20;99.90;;;;;;6222674;23;20199;-83
2022/11/18 08:23:43;;;;;;;23.15;16.75;;;4.10;99.90;;;;;;6223959;23;20210;-84
2022/11/18 08:26:12;;;;;;;28.20;18.02;;;4.20;99.90;;;;;;6225935;23;20179;-83
2022/11/18 08:28:40;;;;;;;29.80;18.75;;;4.10;99.90;;;;;;6225155;23;20180;-83
2022/11/18 08:31:13;;;;;;;28.13;18.58;;;4.10;99.90;;;;;;6223279;23;20674;-84
2022/11/18 08:33:40;;;;;;;30.98;18.45;;;4.10;99.90;;;;;;6224569;23;20183;-82
2022/11/18 08:36:09;;;;;;;28.52;17.98;;;4.10;99.90;;;;;;6222408;23;20657;-84
2022/11/18 08:38:36;;;;;;;26.27;17.25;;;4.10;99.90;;;;;;6222790;23;20210;-83
2022/11/18 08:41:04;;;;;;;28.63;19.20;;;4.00;99.90;;;;;;6225024;23;20226;-84
2022/11/18 08:43:31;;;;;;;24.23;17.38;;;4.10;99.90;;;;;;6227038;23;20662;-83
2022/11/18 08:45:58;;;;;;;32.45;22.58;;;4.00;99.90;;;;;;6223135;23;20211;-82
2022/11/18 08:48:26;;;;;;;30.17;19.75;;;4.00;99.90;;;;;;6225419;23;20610;-83
2022/11/18 08:50:53;;;;;;;31.73;21.48;;;4.00;99.90;;;;;;6224486;23;20203;-83
2022/11/18 08:53:20;;;;;;;29.15;20.67;;;4.00;99.90;;;;;;6225491;23;20183;-84
2022/11/18 08:55:47;;;;;;;32.15;21.75;;;4.00;99.90;;;;;;6223100;23;20530;-82
2022/11/18 08:58:14;;;;;;;36.05;21.00;;;3.90;99.90;;;;;;6223251;23;20195;-83
2022/11/18 09:00:41;;;;;;;29.85;19.20;;;3.90;99.90;;;;;;6221715;23;20286;-82
2022/11/18 09:03:08;;;;;;;35.78;22.08;;;3.90;99.90;;;;;;6222088;23;20203;-84
2022/11/18 09:05:36;;;;;;;33.20;20.45;;;4.00;99.90;;;;;;6221394;23;20175;-83
2022/11/18 09:08:03;;;;;;;36.20;22.88;;;4.00;99.90;;;;;;6222932;23;20311;-82
2022/11/18 09:10:30;;;;;;;37.28;24.98;;;4.00;99.90;;;;;;6222915;23;20226;-83
2022/11/18 09:16:15;;;;;;;38.60;24.40;;;3.90;99.90;;;;;;6195058;23;20371;-83
2022/11/18 09:18:42;;;;;;;39.75;23.17;;;4.10;99.90;;;;;;6225085;23;20190;-82
2022/11/18 09:21:10;;;;;;;33.60;23.15;;;4.10;99.90;;;;;;6224417;23;20230;-84
2022/11/18 09:23:38;;;;;;;37.85;22.05;;;4.10;99.90;;;;;;6222443;23;20191;-83
2022/11/18 09:26:06;;;;;;;37.63;23.90;;;4.00;99.90;;;;;;6222271;23;20184;-85
2022/11/18 09:28:34;;;;;;;39.22;23.95;;;4.00;99.90;;;;;;6221644;23;20180;-84
2022/11/18 09:31:04;;;;;;;35.70;23.35;;;4.00;99.90;;;;;;6228621;23;20230;-84
2022/11/18 09:33:31;;;;;;;42.05;25.95;;;4.10;99.90;;;;;;6222893;23;20163;-84
2022/11/18 09:35:58;;;;;;;34.33;22.35;;;4.10;99.90;;;;;;6223930;23;20231;-84
2022/11/18 09:38:28;;;;;;;44.05;27.48;;;4.10;99.90;;;;;;6229258;23;20266;-82
2022/11/18 09:41:04;;;;;;;39.45;23.90;;;4.10;99.90;;;;;;6239199;22;20226;-83
2022/11/18 09:43:45;;;;;;;42.17;26.42;;;4.20;99.90;;;;;;6241411;22;20191;-82
2022/11/18 09:46:25;;;;;;;41.58;24.85;;;4.20;99.90;;;;;;6241827;22;20147;-83
2022/11/18 09:51:40;;;;;;;34.95;21.80;;;4.00;99.90;;;;;;6224765;23;20198;-83
2022/11/18 09:54:12;;;;;;;37.47;23.75;;;4.00;99.90;;;;;;6223236;23;20187;-83
2022/11/18 09:56:40;;;;;;;36.60;23.00;;;4.00;99.90;;;;;;6225488;23;20160;-82
2022/11/18 09:59:10;;;;;;;40.40;24.40;;;4.00;99.90;;;;;;6227502;23;20184;-83
2022/11/18 10:01:37;;;;;;;43.33;25.00;;;4.10;99.90;;;;;;6226632;23;20241;-83
2022/11/18 10:04:04;;;;;;;37.65;23.33;;;4.10;99.90;;;;;;6224878;23;20274;-83
2022/11/18 10:06:33;;;;;;;34.60;22.25;;;4.10;99.90;;;;;;6228678;23;20198;-83
2022/11/18 10:09:15;;;;;;;38.63;23.65;;;4.00;99.90;;;;;;6227868;23;20206;-82
2022/11/18 10:11:53;;;;;;;29.10;21.08;;;4.10;99.90;;;;;;6230755;23;20199;-83
2022/11/18 10:14:35;;;;;;;36.70;23.20;;;4.10;99.90;;;;;;6225431;23;20247;-83
2022/11/18 10:17:09;;;;;;;35.22;22.38;;;4.00;99.90;;;;;;6229717;23;20493;-82
2022/11/18 10:19:44;;;;;;;30.10;21.35;;;3.90;99.90;;;;;;6228243;23;20257;-82
2022/11/18 10:22:20;;;;;;;35.33;20.77;;;3.90;99.90;;;;;;6227136;23;20175;-84
2022/11/18 10:24:50;;;;;;;34.55;22.25;;;3.90;99.90;;;;;;6226560;23;20188;-84
2022/11/18 10:27:18;;;;;;;32.28;21.73;;;3.90;99.90;;;;;;6227067;23;20634;-82
2022/11/18 10:29:48;;;;;;;31.50;20.60;;;3.90;99.90;;;;;;6229908;23;20179;-83
2022/11/18 10:32:17;;;;;;;32.47;22.02;;;3.90;99.90;;;;;;6228771;23;20165;-83
2022/11/18 10:34:49;;;;;;;28.92;19.40;;;4.00;99.90;;;;;;6226094;23;20203;-82
2022/11/18 10:37:24;;;;;;;31.10;19.88;;;4.00;99.90;;;;;;6226867;23;20180;-83
2022/11/18 10:39:54;;;;;;;28.75;18.98;;;4.00;99.90;;;;;;6226685;23;20195;-83
2022/11/18 10:42:27;;;;;;;28.55;18.83;;;4.00;99.90;;;;;;6232080;23;20227;-84
2022/11/18 10:44:55;;;;;;;28.67;17.77;;;4.00;99.90;;;;;;6231355;23;20263;-83
2022/11/18 10:47:25;;;;;;;30.17;18.83;;;4.00;99.90;;;;;;6233388;23;20203;-84
2022/11/18 10:49:53;;;;;;;27.63;18.25;;;4.00;99.90;;;;;;6229373;23;20199;-84
2022/11/18 10:52:21;;;;;;;25.48;18.55;;;4.00;99.90;;;;;;6228554;23;20255;-86
2022/11/18 10:55:08;;;;;;;24.63;18.45;;;4.00;99.90;;;;;;6225305;23;20199;-82
2022/11/18 10:57:42;;;;;;;30.38;18.63;;;4.00;99.90;;;;;;6224556;23;20159;-81
2022/11/18 11:00:34;;;;;;;32.50;21.05;;;4.00;99.90;;;;;;6224411;23;20583;-81
2022/11/18 11:03:01;;;;;;;23.48;16.33;;;4.10;99.90;;;;;;6225338;23;20192;-82
2022/11/18 11:05:28;;;;;;;28.50;18.52;;;4.10;99.90;;;;;;6225386;23;20294;-81
2022/11/18 11:08:03;;;;;;;27.10;19.55;;;4.20;99.90;;;;;;6223781;23;20243;-83
2022/11/18 11:10:32;;;;;;;29.80;18.95;;;4.10;99.90;;;;;;6223445;23;20667;-80
2022/11/18 11:13:02;;;;;;;22.70;16.98;;;4.10;99.90;;;;;;6225970;23;20212;-80
2022/11/18 11:15:36;;;;;;;23.52;17.50;;;4.10;99.90;;;;;;6224871;23;20172;-81
2022/11/18 11:20:52;;;;;;;22.10;15.82;;;4.00;99.90;;;;;;6225925;23;20594;-79
2022/11/18 11:23:19;;;;;;;24.23;17.30;;;4.00;99.90;;;;;;6226946;23;20635;-83
2022/11/18 11:26:00;;;;;;;24.95;16.85;;;4.00;99.90;;;;;;6231722;23;20199;-82
2022/11/18 11:28:30;;;;;;;23.88;16.83;;;4.10;99.90;;;;;;6230971;23;20171;-85
2022/11/18 11:31:13;;;;;;;24.35;17.50;;;4.30;99.90;;;;;;6234462;23;20203;-84
2022/11/18 11:33:44;;;;;;;21.73;15.63;;;4.20;99.90;;;;;;6232488;23;20175;-86
2022/11/18 11:36:32;;;;;;;27.10;16.77;;;4.20;99.90;;;;;;6230743;23;20179;-85
2022/11/18 11:39:17;;;;;;;24.35;17.42;;;4.10;99.90;;;;;;6228842;23;20164;-84
2022/11/18 11:41:53;;;;;;;23.88;17.23;;;4.10;99.90;;;;;;6232388;23;20245;-84
2022/11/18 11:44:40;;;;;;;22.50;16.92;;;4.10;99.90;;;;;;6229741;23;20393;-84
2022/11/18 11:50:08;;;;;;;25.25;17.65;;;4.20;99.90;;;;;;6226029;23;20531;-83
2022/11/18 11:52:44;;;;;;;29.80;17.27;;;4.30;99.90;;;;;;6227294;23;20195;-84
2022/11/18 11:55:22;;;;;;;22.95;16.42;;;4.30;99.90;;;;;;6226563;23;20184;-86
2022/11/18 11:58:12;;;;;;;21.02;15.45;;;4.40;99.90;;;;;;6225914;23;20634;-84
2022/11/18 12:00:45;;;;;;;23.85;14.85;;;4.50;99.90;;;;;;6238084;22;20199;-84
2022/11/18 12:03:36;;;;;;;22.33;16.17;;;4.60;99.90;;;;;;6241279;22;20182;-82
2022/11/18 12:06:03;;;;;;;24.35;16.50;;;4.70;99.90;;;;;;6239794;22;20227;-84
2022/11/18 12:08:32;;;;;;;22.08;15.77;;;4.60;99.90;;;;;;6234988;23;20252;-84
2022/11/18 12:11:06;;;;;;;22.08;16.33;;;4.70;99.90;;;;;;6232000;23;20227;-84
2022/11/18 12:13:40;;;;;;;20.88;15.95;;;4.50;99.90;;;;;;6231692;23;20175;-84
2022/11/18 12:16:18;;;;;;;23.80;16.23;;;4.50;99.90;;;;;;6230343;23;20159;-84
2022/11/18 12:18:50;;;;;;;20.80;14.80;;;4.50;99.90;;;;;;6230059;23;20234;-84
2022/11/18 12:21:50;;;;;;;16.92;12.77;;;4.40;99.90;;;;;;6230817;23;20227;-84
2022/11/18 12:24:31;;;;;;;18.60;13.85;;;4.30;99.90;;;;;;6219241;23;20275;-84
2022/11/18 12:26:59;;;;;;;21.73;15.57;;;4.20;99.90;;;;;;6228988;23;20318;-85
2022/11/18 12:29:40;;;;;;;22.90;15.70;;;4.10;99.90;;;;;;6232704;23;20214;-83
2022/11/18 12:32:54;;;;;;;23.13;16.75;;;4.20;99.90;;;;;;6231911;23;20171;-84
2022/11/18 12:35:27;;;;;;;22.58;17.15;;;4.10;99.90;;;;;;6223851;23;20234;-85
2022/11/18 12:38:02;;;;;;;21.55;15.85;;;4.20;99.90;;;;;;6234018;23;20171;-85
2022/11/18 12:40:38;;;;;;;25.40;17.85;;;4.20;99.90;;;;;;6228229;23;20199;-84
2022/11/18 12:45:54;;;;;;;22.60;16.92;;;4.20;99.90;;;;;;6233364;23;20191;-84
2022/11/18 12:48:33;;;;;;;26.58;19.55;;;4.10;99.90;;;;;;6227254;23;20167;-83
2022/11/18 12:51:02;;;;;;;23.98;19.17;;;4.00;99.90;;;;;;6228320;23;20223;-84
2022/11/18 12:53:34;;;;;;;26.25;18.90;;;4.10;99.90;;;;;;6228287;23;20203;-84
2022/11/18 12:56:11;;;;;;;26.30;18.33;;;4.00;99.90;;;;;;6225558;23;20159;-85
2022/11/18 12:58:37;;;;;;;27.10;21.13;;;3.90;99.90;;;;;;6229128;23;20242;-85
2022/11/18 13:01:08;;;;;;;30.38;20.88;;;3.90;99.90;;;;;;6226929;23;20223;-84
2022/11/18 13:03:35;;;;;;;29.70;21.20;;;3.90;99.90;;;;;;6229468;23;20164;-85
2022/11/18 13:06:06;;;;;;;28.23;19.17;;;3.90;99.90;;;;;;6230436;23;20223;-84
2022/11/18 13:08:34;;;;;;;33.85;22.08;;;3.90;99.90;;;;;;6225417;23;20188;-84
2022/11/18 13:17:50;;;;;;;28.77;19.10;;;3.90;99.90;;;;;;6233950;23;20164;-84
2022/11/18 13:19:28;;;;;;;29.92;20.75;;;3.70;99.90;;;;;;6233772;23;20214;-83
2022/11/18 13:24:45;;;;;;;24.65;19.00;;;3.70;99.90;;;;;;6232105;23;20210;-84
2022/11/18 13:30:11;;;;;;;29.23;19.38;;;3.80;99.90;;;;;;6224855;23;20190;-84
2022/11/18 13:32:44;;;;;;;27.92;20.55;;;3.80;99.90;;;;;;6231751;23;20179;-84
2022/11/18 13:35:15;;;;;;;27.38;18.35;;;3.80;99.90;;;;;;6231765;23;20188;-84
2022/11/18 13:37:53;;;;;;;27.77;20.23;;;3.80;99.90;;;;;;6233002;23;20510;-85
2022/11/18 13:40:23;;;;;;;28.02;20.58;;;3.90;99.90;;;;;;6227320;23;20199;-85
2022/11/18 13:42:53;;;;;;;28.25;19.65;;;4.00;99.90;;;;;;6226176;23;20180;-84
2022/11/18 13:45:25;;;;;;;27.85;19.73;;;3.90;99.90;;;;;;6228224;23;20184;-85
2022/11/18 13:47:58;;;;;;;26.73;19.13;;;3.90;99.90;;;;;;6227416;23;20152;-85
2022/11/18 13:50:28;;;;;;;26.98;20.08;;;3.90;99.90;;;;;;6226957;23;20230;-84
2022/11/18 13:53:06;;;;;;;27.58;18.25;;;3.80;99.90;;;;;;6229439;23;20198;-84
2022/11/18 13:55:39;;;;;;;27.00;19.85;;;3.80;99.90;;;;;;6226229;23;20155;-84
2022/11/18 13:58:22;;;;;;;27.58;19.20;;;3.70;99.90;;;;;;6224747;23;20598;-84
2022/11/18 14:00:56;;;;;;;22.98;17.45;;;3.60;99.90;;;;;;6225570;23;20680;-85
2022/11/18 14:03:27;;;;;;;27.70;18.38;;;3.60;99.90;;;;;;6225727;23;20167;-83
2022/11/18 14:05:55;;;;;;;25.65;18.98;;;3.60;99.90;;;;;;6226767;23;20183;-83
2022/11/18 14:08:26;;;;;;;27.85;20.08;;;3.60;99.90;;;;;;6224858;23;20207;-84
2022/11/18 14:10:53;;;;;;;24.58;18.70;;;3.60;99.90;;;;;;6225512;23;20203;-83
2022/11/18 14:13:27;;;;;;;26.10;19.92;;;3.80;99.90;;;;;;6226242;23;20172;-83
2022/11/18 14:15:55;;;;;;;29.58;20.27;;;3.70;99.90;;;;;;6224537;23;20167;-83
2022/11/18 14:18:37;;;;;;;25.83;18.42;;;3.80;99.90;;;;;;6219565;23;20262;-84
2022/11/18 14:21:22;;;;;;;24.48;18.77;;;3.70;99.90;;;;;;6225258;23;20254;-85
2022/11/18 14:23:49;;;;;;;31.33;21.15;;;3.80;99.90;;;;;;6223819;23;20183;-86
2022/11/18 14:26:27;;;;;;;29.15;20.33;;;3.80;99.90;;;;;;6226032;23;20227;-83
2022/11/18 14:28:56;;;;;;;29.20;21.00;;;3.90;99.90;;;;;;6226184;23;20246;-85
2022/11/18 14:31:25;;;;;;;31.75;21.20;;;3.80;99.90;;;;;;6225926;23;20230;-85
2022/11/18 14:34:21;;;;;;;29.33;20.38;;;3.80;99.90;;;;;;6227973;23;20168;-83
2022/11/18 14:36:49;;;;;;;30.77;21.00;;;3.70;99.90;;;;;;6226417;23;20467;-87
2022/11/18 14:39:23;;;;;;;31.20;22.52;;;3.70;99.90;;;;;;6226694;23;20218;-84
2022/11/18 14:41:50;;;;;;;36.97;21.05;;;3.80;99.90;;;;;;6225092;23;20199;-85